< < Back
Terminal Aerodrome Forecast


Current Version              Previous Versions:   1  2  3  4  5  6  7  8  9  

Terminal Aerodrome Forecast

678
FTUS42 KCHS 191100
TAFCHS
TAF
KCHS 191133Z 1912/2012 04005KT P6SM BKN250
     FM200700 04004KT P6SM -RA SCT025 BKN080=

Latest METAR

661
SAUS80 KWBC 192200 CCA
MTRCHS
METAR KCHS 192156Z 12007KT 10SM FEW090 SCT120 BKN220 13/07 A3012 RMK AO2
SLP197 T01330067


USA.gov is the U.S. government's official web portal to all federal, state and local government web resources and services.